createdAt,value
2019-05-16T00:02:10.326Z,4.87
2019-05-16T00:04:40.719Z,5.97
2019-05-16T00:07:23.172Z,6.23
2019-05-16T00:09:53.490Z,5.67
2019-05-16T00:12:29.130Z,5.03
2019-05-16T00:14:59.336Z,4.00
2019-05-16T00:17:29.678Z,5.67
2019-05-16T00:20:00.086Z,3.93
2019-05-16T00:22:33.190Z,4.40
2019-05-16T00:25:08.629Z,5.43
2019-05-16T00:27:39.870Z,5.03
2019-05-16T00:30:10.618Z,4.50
2019-05-16T00:32:41.022Z,4.27
2019-05-16T00:35:11.477Z,6.17
2019-05-16T00:37:41.900Z,4.77
2019-05-16T00:40:18.934Z,4.43
2019-05-16T00:42:49.464Z,4.40
2019-05-16T00:45:19.986Z,6.17
2019-05-16T00:47:50.318Z,4.43
2019-05-16T00:50:20.746Z,8.30
2019-05-16T00:52:51.176Z,7.33
2019-05-16T00:55:21.631Z,4.10
2019-05-16T00:57:52.633Z,4.90
2019-05-16T01:00:49.779Z,3.73
2019-05-16T01:03:20.724Z,8.23
2019-05-16T01:05:51.291Z,5.67
2019-05-16T01:08:21.735Z,5.17
2019-05-16T01:10:52.206Z,5.83
2019-05-16T01:13:22.611Z,4.20
2019-05-16T01:15:52.979Z,5.10
2019-05-16T01:18:23.311Z,4.00
2019-05-16T01:20:53.675Z,3.57
2019-05-16T01:23:24.011Z,4.60
2019-05-16T01:25:54.367Z,3.93
2019-05-16T01:28:24.696Z,4.27
2019-05-16T01:30:55.148Z,4.77
2019-05-16T01:33:27.914Z,3.43
2019-05-16T01:35:58.533Z,3.70
2019-05-16T01:38:29.118Z,2.87
2019-05-16T01:40:59.430Z,2.67
2019-05-16T01:43:29.795Z,3.83
2019-05-16T01:46:00.240Z,2.60
2019-05-16T01:48:30.651Z,3.67
2019-05-16T01:51:03.855Z,2.50
2019-05-16T01:53:34.219Z,2.40
2019-05-16T01:56:04.823Z,2.83
2019-05-16T01:58:35.136Z,2.43
2019-05-16T02:03:38.763Z,2.40
2019-05-16T02:06:09.295Z,3.87
2019-05-16T02:08:39.751Z,3.77
2019-05-16T02:11:10.127Z,1.87
2019-05-16T02:13:40.571Z,2.27
2019-05-16T02:16:10.935Z,3.17
2019-05-16T02:18:41.393Z,2.23
2019-05-16T02:21:11.821Z,3.07
2019-05-16T02:23:42.236Z,2.60
2019-05-16T02:26:12.696Z,3.03
2019-05-16T02:28:43.962Z,3.53
2019-05-16T02:31:15.382Z,2.03
2019-05-16T02:33:46.091Z,3.13
2019-05-16T02:36:17.189Z,2.20
2019-05-16T02:38:51.482Z,2.30
2019-05-16T02:41:21.636Z,2.23
2019-05-16T02:43:51.959Z,2.47
2019-05-16T02:46:22.410Z,2.10
2019-05-16T02:48:53.864Z,1.80
2019-05-16T02:51:24.254Z,1.87
2019-05-16T02:53:54.675Z,2.50
2019-05-16T02:56:25.071Z,2.80
2019-05-16T02:58:55.456Z,1.90
2019-05-16T03:01:25.883Z,1.80
2019-05-16T03:03:56.349Z,1.97
2019-05-16T03:06:27.128Z,7.50
2019-05-16T03:09:04.698Z,2.00
2019-05-16T03:11:34.036Z,1.90
2019-05-16T03:14:05.489Z,2.73
2019-05-16T03:16:41.823Z,1.80
2019-05-16T03:19:13.298Z,1.57
2019-05-16T03:21:44.496Z,2.33
2019-05-16T03:24:15.865Z,1.97
2019-05-16T03:26:46.251Z,3.37
2019-05-16T03:29:16.517Z,2.20
2019-05-16T03:31:46.960Z,2.10
2019-05-16T03:34:24.196Z,1.87
2019-05-16T03:36:54.247Z,2.27
2019-05-16T03:39:21.531Z,2.70
2019-05-16T03:41:51.967Z,1.60
2019-05-16T03:44:22.316Z,2.87
2019-05-16T03:46:52.800Z,2.50
2019-05-16T03:49:23.080Z,1.67
2019-05-16T03:51:53.471Z,2.00
2019-05-16T03:54:23.848Z,2.93
2019-05-16T03:56:54.214Z,2.17
2019-05-16T03:59:24.599Z,1.60
2019-05-16T04:01:54.970Z,2.00
2019-05-16T04:04:25.373Z,3.03
2019-05-16T04:06:55.888Z,2.63
2019-05-16T04:09:26.238Z,2.53
2019-05-16T04:11:56.687Z,2.20
2019-05-16T04:14:27.039Z,1.90
2019-05-16T04:17:01.404Z,2.10
2019-05-16T04:19:32.181Z,1.83
2019-05-16T04:22:02.539Z,1.67
2019-05-16T04:24:32.883Z,2.20
2019-05-16T04:27:03.337Z,1.50
2019-05-16T04:29:33.610Z,2.63
2019-05-16T04:32:04.055Z,2.27
2019-05-16T04:34:34.519Z,1.70
2019-05-16T04:37:11.278Z,2.93
2019-05-16T04:39:41.502Z,3.27
2019-05-16T04:42:12.006Z,3.10
2019-05-16T04:44:42.355Z,2.40
2019-05-16T04:47:12.612Z,2.33
2019-05-16T04:49:42.964Z,2.23
2019-05-16T04:52:13.431Z,2.60
2019-05-16T04:54:43.852Z,2.97
2019-05-16T04:57:14.260Z,3.70
2019-05-16T04:59:44.697Z,3.00
2019-05-16T05:02:15.121Z,2.57
2019-05-16T05:04:45.425Z,5.07
2019-05-16T05:07:15.895Z,3.17
2019-05-16T05:09:46.204Z,3.30
2019-05-16T05:12:16.576Z,3.87
2019-05-16T05:14:46.992Z,4.70
2019-05-16T05:17:17.408Z,5.37
2019-05-16T05:19:50.457Z,7.30
2019-05-16T05:22:20.041Z,7.60
2019-05-16T05:24:50.763Z,4.93
2019-05-16T05:27:22.167Z,4.60
2019-05-16T05:29:52.644Z,4.50
2019-05-16T05:32:22.984Z,8.40
2019-05-16T05:34:53.433Z,5.33
2019-05-16T05:37:24.240Z,8.00
2019-05-16T05:39:54.655Z,15.77
2019-05-16T05:42:24.956Z,12.23
2019-05-16T05:44:55.244Z,6.30
2019-05-16T05:47:25.517Z,8.23
2019-05-16T05:49:55.783Z,6.40
2019-05-16T05:52:26.085Z,6.90
2019-05-16T05:54:56.514Z,9.60
2019-05-16T05:57:26.772Z,3.43
2019-05-16T05:59:57.248Z,3.43
2019-05-16T06:02:27.590Z,6.73
2019-05-16T06:04:59.734Z,2.77
2019-05-16T06:07:30.224Z,2.87
2019-05-16T06:10:00.701Z,2.30
2019-05-16T06:12:34.968Z,3.83
2019-05-16T06:15:09.056Z,3.80
2019-05-16T06:17:41.216Z,2.83
2019-05-16T06:20:16.464Z,3.67
2019-05-16T06:22:59.878Z,1.93
2019-05-16T06:25:31.408Z,2.60
2019-05-16T06:28:03.009Z,2.90
2019-05-16T06:30:33.532Z,1.80
2019-05-16T06:33:05.456Z,2.37
2019-05-16T06:35:35.968Z,2.10
2019-05-16T06:38:12.641Z,2.97
2019-05-16T06:40:43.913Z,4.20
2019-05-16T06:43:14.396Z,6.67
2019-05-16T06:45:44.773Z,1.90
2019-05-16T06:48:15.156Z,2.27
2019-05-16T06:50:46.337Z,2.07
2019-05-16T06:53:16.781Z,2.17
2019-05-16T06:55:47.115Z,3.13
2019-05-16T06:58:17.572Z,1.90
2019-05-16T07:00:51.662Z,2.30
2019-05-16T07:03:20.757Z,4.80
2019-05-16T07:05:51.342Z,4.30
2019-05-16T07:08:22.714Z,2.30
2019-05-16T07:10:53.084Z,2.63
2019-05-16T07:13:23.500Z,1.97
2019-05-16T07:15:53.921Z,2.67
2019-05-16T07:18:24.351Z,2.63
2019-05-16T07:20:54.778Z,2.43
2019-05-16T07:23:25.057Z,2.10
2019-05-16T07:25:55.469Z,2.33
2019-05-16T07:28:25.845Z,3.47
2019-05-16T07:30:56.276Z,2.17
2019-05-16T07:33:26.638Z,3.90
2019-05-16T07:35:57.018Z,2.23
2019-05-16T07:38:27.349Z,3.27
2019-05-16T07:40:59.758Z,2.13
2019-05-16T07:43:30.786Z,2.47
2019-05-16T07:46:03.962Z,2.37
2019-05-16T07:48:34.454Z,1.90
2019-05-16T07:51:04.875Z,1.80
2019-05-16T07:53:35.314Z,2.70
2019-05-16T07:56:05.655Z,3.17
2019-05-16T07:58:36.002Z,2.40
2019-05-16T08:01:09.172Z,3.23
2019-05-16T08:03:43.742Z,2.73
2019-05-16T08:06:11.087Z,1.93
2019-05-16T08:08:41.610Z,1.60
2019-05-16T08:11:12.400Z,2.00
2019-05-16T08:13:42.971Z,2.80
2019-05-16T08:16:13.454Z,2.90
2019-05-16T08:18:45.266Z,1.83
2019-05-16T08:21:16.888Z,3.23
2019-05-16T08:23:50.173Z,4.80
2019-05-16T08:26:21.886Z,7.30
2019-05-16T08:28:51.816Z,2.97
2019-05-16T08:31:22.125Z,2.07
2019-05-16T08:33:54.917Z,2.90
2019-05-16T08:36:24.571Z,3.67
2019-05-16T08:38:54.901Z,3.80
2019-05-16T08:41:25.239Z,2.50
2019-05-16T08:43:55.924Z,2.53
2019-05-16T08:46:26.388Z,3.23
2019-05-16T08:48:56.711Z,2.70
2019-05-16T08:51:27.111Z,2.60
2019-05-16T08:54:01.313Z,2.03
2019-05-16T08:56:31.823Z,3.80
2019-05-16T08:59:03.290Z,6.17
2019-05-16T09:04:05.971Z,2.60
2019-05-16T09:06:36.395Z,2.07
2019-05-16T09:09:26.619Z,4.53
2019-05-16T09:10:15.891Z,2.30
2019-05-16T09:11:44.629Z,2.93
2019-05-16T09:14:11.797Z,2.23
2019-05-16T09:16:42.242Z,2.10
2019-05-16T09:19:12.587Z,3.17
2019-05-16T09:21:42.949Z,4.20
2019-05-16T09:24:13.409Z,1.87
2019-05-16T09:26:43.820Z,3.03
2019-05-16T09:29:16.638Z,3.67
2019-05-16T09:32:07.287Z,2.97
2019-05-16T09:34:18.516Z,2.67
2019-05-16T09:36:48.888Z,2.20
2019-05-16T09:39:19.236Z,2.27
2019-05-16T09:41:54.490Z,2.13
2019-05-16T09:44:21.795Z,3.37
2019-05-16T09:46:52.391Z,2.70
2019-05-16T09:49:24.858Z,2.33
2019-05-16T09:51:56.778Z,2.67
2019-05-16T09:54:27.495Z,3.47
2019-05-16T09:56:57.928Z,2.47
2019-05-16T09:59:28.400Z,3.43
2019-05-16T10:01:58.835Z,3.17
2019-05-16T10:04:29.267Z,3.70
2019-05-16T10:06:59.710Z,3.00
2019-05-16T10:09:40.851Z,2.27
2019-05-16T10:12:14.204Z,2.67
2019-05-16T10:14:34.417Z,2.80
2019-05-16T10:17:04.865Z,4.33
2019-05-16T10:19:36.845Z,2.40
2019-05-16T10:22:07.558Z,2.43
2019-05-16T10:24:38.053Z,3.80
2019-05-16T10:27:08.503Z,2.00
2019-05-16T10:29:38.929Z,2.40
2019-05-16T10:32:09.484Z,5.83
2019-05-16T10:34:39.932Z,3.50
2019-05-16T10:37:10.433Z,3.57
2019-05-16T10:39:40.796Z,2.20
2019-05-16T10:42:24.869Z,2.67
2019-05-16T10:44:44.380Z,2.40
2019-05-16T10:47:17.295Z,2.50
2019-05-16T10:49:47.732Z,2.93
2019-05-16T10:52:18.295Z,4.07
2019-05-16T10:54:58.149Z,7.03
2019-05-16T10:57:21.838Z,4.47
2019-05-16T11:00:05.101Z,7.77
2019-05-16T11:02:24.657Z,3.40
2019-05-16T11:05:08.211Z,4.57
2019-05-16T11:07:29.793Z,4.10
2019-05-16T11:10:03.480Z,2.87
2019-05-16T11:12:46.225Z,3.37
2019-05-16T11:15:10.838Z,3.50
2019-05-16T11:17:37.455Z,2.97
2019-05-16T11:20:08.653Z,9.23
2019-05-16T11:22:39.129Z,4.50
2019-05-16T11:25:20.760Z,3.70
2019-05-16T11:27:41.648Z,4.07
2019-05-16T11:30:12.334Z,3.60
2019-05-16T11:32:42.726Z,3.20
2019-05-16T11:35:13.575Z,3.63
2019-05-16T11:37:46.917Z,3.07
2019-05-16T11:40:18.260Z,4.47
2019-05-16T11:43:03.937Z,3.57
2019-05-16T11:45:22.274Z,4.20
2019-05-16T11:47:52.708Z,4.97
2019-05-16T11:50:23.295Z,4.03
2019-05-16T11:52:53.743Z,5.40
2019-05-16T11:58:30.118Z,5.00
2019-05-16T12:01:00.487Z,6.50
2019-05-16T12:03:31.603Z,6.03
2019-05-16T12:06:20.079Z,4.03
2019-05-16T12:08:50.443Z,4.53
2019-05-16T12:11:20.723Z,5.23
2019-05-16T12:13:51.167Z,5.73
2019-05-16T12:16:39.515Z,5.80
2019-05-16T12:19:09.995Z,6.23
2019-05-16T12:21:40.367Z,4.10
2019-05-16T12:24:10.731Z,5.87
2019-05-16T12:26:42.055Z,5.23
2019-05-16T12:29:12.319Z,6.33
2019-05-16T12:31:55.367Z,4.30
2019-05-16T12:34:16.272Z,3.70
2019-05-16T12:36:47.255Z,3.70
2019-05-16T12:39:17.886Z,5.37
2019-05-16T12:41:49.169Z,4.17
2019-05-16T12:44:19.731Z,5.13
2019-05-16T12:46:49.996Z,3.90
2019-05-16T12:49:20.454Z,4.50
2019-05-16T12:51:50.789Z,5.07
2019-05-16T12:54:21.195Z,5.53
2019-05-16T12:56:51.475Z,4.53
2019-05-16T12:59:21.874Z,5.17
2019-05-16T13:01:52.355Z,4.10
2019-05-16T13:04:22.725Z,3.93
2019-05-16T13:06:53.108Z,3.50
2019-05-16T13:09:23.465Z,3.90
2019-05-16T13:11:53.817Z,5.53
2019-05-16T13:14:24.111Z,4.30
2019-05-16T13:16:54.543Z,4.33
2019-05-16T13:19:32.000Z,5.43
2019-05-16T13:21:57.790Z,4.87
2019-05-16T13:24:28.259Z,6.40
2019-05-16T13:26:58.683Z,5.67
2019-05-16T13:29:29.140Z,8.50
2019-05-16T13:31:59.500Z,5.27
2019-05-16T13:34:29.823Z,6.73
2019-05-16T13:37:00.243Z,9.20
2019-05-16T13:39:31.020Z,6.50
2019-05-16T13:42:01.451Z,6.27
2019-05-16T13:44:31.888Z,6.33
2019-05-16T13:47:02.356Z,5.83
2019-05-16T13:49:32.802Z,7.20
2019-05-16T13:52:03.291Z,6.03
2019-05-16T13:54:33.728Z,5.77
2019-05-16T13:57:06.727Z,7.73
2019-05-16T13:59:37.450Z,8.17
2019-05-16T14:02:08.250Z,6.23
2019-05-16T14:04:39.647Z,6.20
2019-05-16T14:07:09.948Z,6.67
2019-05-16T14:09:40.251Z,6.00
2019-05-16T14:12:10.591Z,5.70
2019-05-16T14:14:42.613Z,5.00
2019-05-16T14:17:14.765Z,7.40
2019-05-16T14:19:47.707Z,4.00
2019-05-16T14:22:17.717Z,6.87
2019-05-16T14:24:48.482Z,6.53
2019-05-16T14:27:18.885Z,4.97
2019-05-16T14:29:49.324Z,6.60
2019-05-16T14:32:20.238Z,5.80
2019-05-16T14:34:51.777Z,6.17
2019-05-16T14:37:22.420Z,5.00
2019-05-16T14:39:52.781Z,5.03
2019-05-16T14:42:23.164Z,5.90
2019-05-16T14:45:06.634Z,5.70
2019-05-16T14:47:27.151Z,4.40
2019-05-16T14:49:57.728Z,4.23
2019-05-16T14:52:28.088Z,4.77
2019-05-16T14:54:58.537Z,4.87
2019-05-16T14:57:28.898Z,4.10
2019-05-16T14:59:59.264Z,4.37
2019-05-16T15:02:29.688Z,5.27
2019-05-16T15:05:00.027Z,4.40
2019-05-16T15:07:30.328Z,4.67
2019-05-16T15:10:02.220Z,3.63
2019-05-16T15:12:33.697Z,5.03
2019-05-16T15:15:19.162Z,4.43
2019-05-16T15:17:37.145Z,5.87
2019-05-16T15:20:08.412Z,4.87
2019-05-16T15:22:38.755Z,5.50
2019-05-16T15:25:10.294Z,3.83
2019-05-16T15:27:40.564Z,4.00
2019-05-16T15:30:13.017Z,4.47
2019-05-16T15:32:43.449Z,4.30
2019-05-16T15:35:14.488Z,5.40
2019-05-16T15:37:47.948Z,6.43
2019-05-16T15:40:18.155Z,4.33
2019-05-16T15:42:48.591Z,4.50
2019-05-16T15:45:34.643Z,6.40
2019-05-16T15:47:53.202Z,5.03
2019-05-16T15:50:23.640Z,5.00
2019-05-16T15:52:58.969Z,4.00
2019-05-16T15:55:27.176Z,9.87
2019-05-16T15:57:57.715Z,4.97
2019-05-16T16:00:42.619Z,4.87
2019-05-16T16:03:13.021Z,6.13
2019-05-16T16:05:43.474Z,7.60
2019-05-16T16:08:13.879Z,4.17
2019-05-16T16:10:47.798Z,4.30
2019-05-16T16:13:19.845Z,5.73
2019-05-16T16:15:54.307Z,4.20
2019-05-16T16:18:22.416Z,5.07
2019-05-16T16:20:52.768Z,5.37
2019-05-16T16:23:23.204Z,3.93
2019-05-16T16:25:53.810Z,7.03
2019-05-16T16:28:26.947Z,12.27
2019-05-16T16:30:57.087Z,4.67
2019-05-16T16:33:30.067Z,4.67
2019-05-16T16:35:59.515Z,5.40
2019-05-16T16:38:29.948Z,8.67
2019-05-16T16:41:01.306Z,5.07
2019-05-16T16:43:31.651Z,5.43
2019-05-16T16:46:08.701Z,4.93
2019-05-16T16:48:34.135Z,5.03
2019-05-16T16:51:06.646Z,4.40
2019-05-16T16:53:37.853Z,4.90
2019-05-16T16:56:08.552Z,7.23
2019-05-16T16:58:39.030Z,7.23
2019-05-16T17:01:09.379Z,11.87
2019-05-16T17:03:39.911Z,6.93
2019-05-16T17:06:10.351Z,7.60
2019-05-16T17:08:40.797Z,5.70
2019-05-16T17:11:11.184Z,5.40
2019-05-16T17:13:41.663Z,4.83
2019-05-16T17:16:21.935Z,6.20
2019-05-16T17:18:44.112Z,6.50
2019-05-16T17:21:16.875Z,4.80
2019-05-16T17:23:46.698Z,5.70
2019-05-16T17:26:16.992Z,14.47
2019-05-16T17:28:47.612Z,7.13
2019-05-16T17:31:17.948Z,6.63
2019-05-16T17:33:48.390Z,10.10
2019-05-16T17:36:18.815Z,10.20
2019-05-16T17:38:49.260Z,6.47
2019-05-16T17:41:19.699Z,5.57
2019-05-16T17:43:51.170Z,5.37
2019-05-16T17:46:33.937Z,5.10
2019-05-16T17:48:54.250Z,9.57
2019-05-16T17:51:26.211Z,5.00
2019-05-16T17:53:57.193Z,5.97
2019-05-16T17:56:27.620Z,7.70
2019-05-16T17:58:57.948Z,4.47
2019-05-16T18:01:28.319Z,5.57
2019-05-16T18:03:58.682Z,7.00
2019-05-16T18:06:29.036Z,5.70
2019-05-16T18:08:59.431Z,6.07
2019-05-16T18:11:29.783Z,4.70
2019-05-16T18:14:00.204Z,7.13
2019-05-16T18:16:51.680Z,6.10
2019-05-16T18:19:07.892Z,7.00
2019-05-16T18:21:38.255Z,5.63
2019-05-16T18:24:08.686Z,7.20
2019-05-16T18:26:39.491Z,8.50
2019-05-16T18:29:09.910Z,4.70
2019-05-16T18:31:40.328Z,6.07
2019-05-16T18:34:10.676Z,4.40
2019-05-16T18:36:41.048Z,6.33
2019-05-16T18:39:11.408Z,4.23
2019-05-16T18:41:41.696Z,4.07
2019-05-16T18:44:12.142Z,4.37
2019-05-16T18:46:42.593Z,6.10
2019-05-16T18:49:12.990Z,4.03
2019-05-16T18:51:43.428Z,4.90
2019-05-16T18:54:13.694Z,4.97
2019-05-16T18:56:44.076Z,5.90
2019-05-16T18:59:16.698Z,4.07
2019-05-16T19:01:47.010Z,5.10
2019-05-16T19:04:17.745Z,5.20
2019-05-16T19:06:48.305Z,5.60
2019-05-16T19:09:19.249Z,8.73
2019-05-16T19:11:49.606Z,6.00
2019-05-16T19:14:20.052Z,4.47
2019-05-16T19:16:50.508Z,4.23
2019-05-16T19:19:20.964Z,4.63
2019-05-16T19:21:51.388Z,5.10
2019-05-16T19:24:21.824Z,6.77
2019-05-16T19:26:52.188Z,5.80
2019-05-16T19:29:22.636Z,6.33
2019-05-16T19:31:52.908Z,5.57
2019-05-16T19:34:23.248Z,5.50
2019-05-16T19:36:53.673Z,6.67
2019-05-16T19:39:26.066Z,6.33
2019-05-16T19:41:57.231Z,5.67
2019-05-16T19:44:27.612Z,6.47
2019-05-16T19:46:57.914Z,7.13
2019-05-16T19:49:28.232Z,6.60
2019-05-16T19:51:58.533Z,7.10
2019-05-16T19:54:28.892Z,6.83
2019-05-16T19:56:59.344Z,7.33
2019-05-16T19:59:29.640Z,6.73
2019-05-16T20:02:04.932Z,11.93
2019-05-16T20:04:38.535Z,13.63
2019-05-16T20:07:14.204Z,8.67
2019-05-16T20:09:49.124Z,7.03
2019-05-16T20:12:22.732Z,7.93
2019-05-16T20:15:07.950Z,10.90
2019-05-16T20:17:33.740Z,7.43
2019-05-16T20:20:11.040Z,7.60
2019-05-16T20:22:46.216Z,7.47
2019-05-16T20:25:22.124Z,8.07
2019-05-16T20:27:54.322Z,7.60
2019-05-16T20:30:31.041Z,9.60
2019-05-16T20:33:09.516Z,9.13
2019-05-16T20:35:46.825Z,10.87
2019-05-16T20:38:20.449Z,10.13
2019-05-16T20:41:00.420Z,11.07
2019-05-16T20:43:36.855Z,11.33
2019-05-16T20:46:16.351Z,9.90
2019-05-16T20:48:50.253Z,11.27
2019-05-16T20:51:27.794Z,12.93
2019-05-16T20:54:07.085Z,11.53
2019-05-16T20:56:42.725Z,10.97
2019-05-16T20:59:19.197Z,11.63
2019-05-16T21:01:53.709Z,10.40
2019-05-16T21:04:28.697Z,11.60
2019-05-16T21:07:08.205Z,12.00
2019-05-16T21:09:38.868Z,11.63
2019-05-16T21:12:18.708Z,11.40
2019-05-16T21:14:56.666Z,11.77
2019-05-16T21:17:31.882Z,12.20
2019-05-16T21:20:07.079Z,12.70
2019-05-16T21:22:38.657Z,12.67
2019-05-16T21:25:12.669Z,11.23
2019-05-16T21:27:49.053Z,12.23
2019-05-16T21:30:22.137Z,11.43
2019-05-16T21:32:57.378Z,11.90
2019-05-16T21:35:31.878Z,11.40
2019-05-16T21:38:16.352Z,11.40
2019-05-16T21:40:46.469Z,11.10
2019-05-16T21:43:16.975Z,12.63
2019-05-16T21:45:47.531Z,12.33
2019-05-16T21:48:19.370Z,12.93
2019-05-16T21:50:49.985Z,19.37
2019-05-16T21:53:20.461Z,13.00
2019-05-16T21:55:50.948Z,14.27
2019-05-16T21:58:21.562Z,12.13
2019-05-16T22:00:56.730Z,12.20
2019-05-16T22:03:28.828Z,12.17
2019-05-16T22:05:59.411Z,12.20
2019-05-16T22:08:29.802Z,12.77
2019-05-16T22:11:01.850Z,12.13
2019-05-16T22:13:33.841Z,13.73
2019-05-16T22:16:05.674Z,13.80
2019-05-16T22:18:38.545Z,13.27
2019-05-16T22:21:08.722Z,13.80
2019-05-16T22:23:39.073Z,14.50
2019-05-16T22:26:09.523Z,13.23
2019-05-16T22:28:39.973Z,14.07
2019-05-16T22:31:12.880Z,13.93
2019-05-16T22:33:43.221Z,13.70
2019-05-16T22:36:13.538Z,13.93
2019-05-16T22:38:43.941Z,14.40
2019-05-16T22:41:17.092Z,14.40
2019-05-16T22:43:47.306Z,14.37
2019-05-16T22:46:18.705Z,14.40
2019-05-16T22:48:49.050Z,14.57
2019-05-16T22:51:19.418Z,14.83
2019-05-16T22:53:49.730Z,15.00
2019-05-16T22:56:20.195Z,14.40
2019-05-16T22:58:50.630Z,14.57
2019-05-16T23:01:21.061Z,14.87
2019-05-16T23:03:51.430Z,15.17
2019-05-16T23:06:21.789Z,17.73
2019-05-16T23:08:52.226Z,15.50
2019-05-16T23:11:22.578Z,15.63
2019-05-16T23:13:52.891Z,16.97
2019-05-16T23:16:23.338Z,15.37
2019-05-16T23:18:53.711Z,15.63
2019-05-16T23:21:24.091Z,15.83
2019-05-16T23:23:54.404Z,16.33
2019-05-16T23:26:26.799Z,15.50
2019-05-16T23:28:56.940Z,16.33
2019-05-16T23:31:27.311Z,15.63
2019-05-16T23:33:57.612Z,16.03
2019-05-16T23:36:28.119Z,16.63
2019-05-16T23:38:58.511Z,17.20
2019-05-16T23:41:28.976Z,18.07
2019-05-16T23:43:59.363Z,17.63
2019-05-16T23:46:29.656Z,17.50
2019-05-16T23:49:00.009Z,16.53
2019-05-16T23:51:31.728Z,18.47
2019-05-16T23:54:02.075Z,17.47
2019-05-16T23:56:33.380Z,19.23
2019-05-16T23:59:06.481Z,17.27
